Trout Creek, Utah
Current Conditions -  °F | °C
As of 10:55 PM on Thursday 30 Oct 2014 (Local Time) from KENV Reporting Station
Clear Clear  
Wind Chill: 45°   Ceiling: Unl
Heat Index: 45°   Visibility: 10mi
Dew Point: 27°   Wind: 0mph
Humidity: 49%   Direction: NA
Pressure: 30.1"   Gusts: NA
Location:  40.2503°N, 113.457°W
Report Text: KENV 310455Z AUTO 00000KT 10SM CLR 07/M03 A3010 RMK AO1
Loading
Personal Weather Stations






























Interactive Weather Map
Tropical Storm Tracking
New forecast layout! Learn more

10-Day Weather Forecast

Advertisements
Track Severe Weather on mobile